Terminal Aerodrome Forecast
Issued by NWS

Home | Current Version | Previous Version | Text Only | Print | Product List | Glossary On
Versions: 1 2 3 4 5 6 7 8 9 10 11 12 13 14 15 16 17
000
FTUS45 KBOI 231120
TAFBKE
TAF
KBKE 231120Z 2312/2412 VRB05KT P6SM VCSH SCT050 BKN100
     FM231500 10060KT P6SM -RA BKN050 OVC080
     FM232000 12007KT P6SM VCSH BKN100
     FM240200 07008KT P6SM -RA OVC050
     FM240900 VRB05KT P6SM -RA OVC035=

USA.gov is the U.S. government's official web portal to all federal, state and local government web resources and services.